Ana Sayfa
METAR-TAF:

METAR-TAF

Havaalanları :

Milton, Massachusetts, Amerika Birleşik Devletleri

Enlem: 42-12-44N, Boylam: 071-06-53W, yükseklik: 192 m

Güncel hava durumu gözlemi

Rapor saat 00:56 UTC de 35 dakika önce yapıldı.
Rüzgar güneydan 9 kt
Sıcaklık 18°C
Nem 94%
Basınç 1010 hPa

METAR: KMQE 200056Z AUTO 18009KT 18/17 A2982 RMK AO1 SLP106 T01830172

Saat: 21:31 (01:31 UTC)


TAF: eksik

4.000'den fazla havaalanı için hava durumu gözlemleri ve tahminleri (METAR ve TAF raporları).

Kullanılabilir istasyonlar harita üzerinde sarı ve kırmızı noktalarla gösterilir.

İstasyonun adını görmek için fareyi noktanın üzerinde gezdirin.

Sonrasında hava gözlem ve tahminlerini görmek için tıklayın.

Haritayı değiştirmek için: yaklaştırmak için siyah artı işaretli yeşil düğmeye ve uzaklaştırmak için de eksi işaretli düğmeye hızla tıklayın; bitişik haritalar için yeşil okları kullanın.


METAR-TAF: